Time;durP1;ratioP1;P1;durP2;ratioP2;P2;SDS_P1;SDS_P2;PMS_P1;PMS_P2;Temp;Humidity;BMP_temperature;BMP_pressure;BME280_temperature;BME280_humidity;BME280_pressure;Samples;Min_cycle;Max_cycle;Signal;HPM_P1;HPM_P2
2022/06/12 00:00:29;;;;;;;295.87;285.07;;;15.80;99.90;;;;;;5017678;28;20479;-84
2022/06/12 00:02:57;;;;;;;273.97;263.33;;;15.80;99.90;;;;;;5014356;28;20485;-83
2022/06/12 00:05:26;;;;;;;262.93;253.73;;;15.70;99.90;;;;;;5018017;28;20465;-83
2022/06/12 00:07:53;;;;;;;253.10;244.23;;;15.80;99.90;;;;;;5017530;28;20446;-84
2022/06/12 00:10:21;;;;;;;257.23;248.33;;;15.70;99.90;;;;;;5017704;28;20483;-83
2022/06/12 00:12:49;;;;;;;265.63;256.20;;;15.70;99.90;;;;;;5017855;28;20454;-82
2022/06/12 00:15:19;;;;;;;296.20;285.30;;;15.70;99.90;;;;;;5017967;28;20493;-83
2022/06/12 00:17:46;;;;;;;60.77;57.50;;;15.50;99.90;;;;;;5017472;28;20507;-84
2022/06/12 00:20:15;;;;;;;125.50;120.30;;;15.70;99.90;;;;;;5017747;28;20477;-83
2022/06/12 00:22:43;;;;;;;133.40;127.70;;;15.70;99.90;;;;;;5017365;28;20451;-83
2022/06/12 00:25:13;;;;;;;86.17;81.80;;;15.50;99.90;;;;;;5017390;28;20463;-84
2022/06/12 00:27:42;;;;;;;129.60;123.97;;;15.50;99.90;;;;;;5017610;28;21124;-81
2022/06/12 00:30:12;;;;;;;208.57;200.97;;;15.40;99.90;;;;;;5016856;28;20481;-83
2022/06/12 00:32:39;;;;;;;321.77;309.87;;;15.20;99.90;;;;;;5017203;28;20839;-84
2022/06/12 00:35:08;;;;;;;317.90;306.53;;;15.10;99.90;;;;;;5016946;28;20458;-82
2022/06/12 00:37:37;;;;;;;342.20;329.83;;;14.80;99.90;;;;;;5016910;28;20789;-84
2022/06/12 00:40:06;;;;;;;302.43;290.93;;;14.80;99.90;;;;;;5016663;28;20454;-83
2022/06/12 00:42:36;;;;;;;296.37;285.13;;;14.80;99.90;;;;;;5017295;28;20460;-84
2022/06/12 00:45:39;;;;;;;345.13;332.50;;;14.70;99.90;;;;;;5017868;28;20460;-83
2022/06/12 00:48:09;;;;;;;355.00;342.27;;;14.70;99.90;;;;;;5016990;28;20456;-84
2022/06/12 00:50:38;;;;;;;402.80;387.40;;;14.60;99.90;;;;;;5017065;28;20469;-83
2022/06/12 00:53:07;;;;;;;449.97;431.07;;;14.40;99.90;;;;;;5017197;28;20844;-84
2022/06/12 00:55:40;;;;;;;495.70;474.77;;;14.40;99.90;;;;;;5016392;28;20461;-84
2022/06/12 00:58:10;;;;;;;517.47;495.40;;;14.30;99.90;;;;;;5017113;28;20477;-83
2022/06/12 01:00:40;;;;;;;534.33;510.33;;;14.20;99.90;;;;;;5017056;28;20473;-84
2022/06/12 01:03:07;;;;;;;508.70;485.53;;;14.20;99.90;;;;;;5016666;28;20487;-84
2022/06/12 01:08:20;;;;;;;418.00;401.20;;;14.10;99.90;;;;;;5020372;28;20479;-84
2022/06/12 01:10:50;;;;;;;440.93;423.13;;;14.20;99.90;;;;;;5015940;28;20477;-84
2022/06/12 01:13:21;;;;;;;466.40;447.43;;;14.00;99.90;;;;;;5016971;28;20468;-84
2022/06/12 01:15:52;;;;;;;514.13;490.67;;;14.00;99.90;;;;;;5016532;28;20453;-83
2022/06/12 01:18:23;;;;;;;463.90;443.27;;;13.90;99.90;;;;;;5016892;28;20461;-83
2022/06/12 01:20:59;;;;;;;500.77;479.37;;;13.80;99.90;;;;;;5016257;28;20505;-83
2022/06/12 01:23:58;;;;;;;525.10;501.33;;;13.80;99.90;;;;;;5016736;28;20456;-83
2022/06/12 01:27:09;;;;;;;511.87;487.90;;;13.60;99.90;;;;;;5016460;28;20461;-84
2022/06/12 01:29:45;;;;;;;541.63;515.87;;;13.60;99.90;;;;;;4928268;28;20449;-83
2022/06/12 01:32:17;;;;;;;587.80;557.90;;;13.50;99.90;;;;;;5016783;28;20456;-84
2022/06/12 01:34:51;;;;;;;551.60;524.53;;;13.50;99.90;;;;;;5016313;28;20816;-84
2022/06/12 01:37:27;;;;;;;529.83;504.77;;;13.40;99.90;;;;;;5016389;28;20480;-83
2022/06/12 01:40:08;;;;;;;571.43;543.27;;;13.30;99.90;;;;;;5015424;28;20453;-83
2022/06/12 01:42:43;;;;;;;596.37;565.77;;;13.20;99.90;;;;;;5016322;28;20507;-83
2022/06/12 01:45:19;;;;;;;610.10;578.70;;;13.10;99.90;;;;;;5015656;28;20453;-83
2022/06/12 01:47:54;;;;;;;662.07;625.23;;;13.00;99.90;;;;;;5015968;28;20453;-83
2022/06/12 01:50:30;;;;;;;655.13;619.73;;;13.00;99.90;;;;;;5015727;28;20479;-83
2022/06/12 01:53:04;;;;;;;629.30;595.90;;;12.90;99.90;;;;;;5016647;28;20495;-83
2022/06/12 01:55:50;;;;;;;675.40;637.43;;;12.90;99.90;;;;;;5016506;28;20457;-83
2022/06/12 01:58:22;;;;;;;617.43;586.03;;;12.80;99.90;;;;;;5015228;28;20492;-83
2022/06/12 02:00:58;;;;;;;659.27;622.43;;;12.70;99.90;;;;;;5016727;28;20861;-83
2022/06/12 02:03:30;;;;;;;684.10;645.53;;;12.60;99.90;;;;;;5016108;28;20460;-83
2022/06/12 02:06:03;;;;;;;657.30;621.93;;;12.50;99.90;;;;;;5016802;28;20464;-83
2022/06/12 02:08:34;;;;;;;709.30;666.20;;;12.40;99.90;;;;;;5016566;28;20448;-83
2022/06/12 02:13:49;;;;;;;757.03;708.60;;;12.40;99.90;;;;;;5033970;28;20441;-82
2022/06/12 02:16:21;;;;;;;746.20;699.80;;;12.30;99.90;;;;;;5035214;28;20449;-83
2022/06/12 02:18:52;;;;;;;803.90;750.87;;;12.30;99.90;;;;;;5033529;28;20465;-83
2022/06/12 02:21:25;;;;;;;783.87;732.90;;;12.30;99.90;;;;;;5027561;28;20474;-83
2022/06/12 02:23:56;;;;;;;803.87;750.63;;;12.30;99.90;;;;;;5015687;28;20453;-83
2022/06/12 02:26:27;;;;;;;802.70;749.10;;;12.20;99.90;;;;;;5016233;28;20453;-81
2022/06/12 02:28:59;;;;;;;794.80;744.40;;;12.30;99.90;;;;;;5015250;28;20445;-80
2022/06/12 02:31:32;;;;;;;808.10;755.57;;;12.10;99.90;;;;;;5013796;28;20477;-81
2022/06/12 02:34:03;;;;;;;830.10;774.07;;;12.10;99.90;;;;;;5013350;28;20460;-81
2022/06/12 02:36:35;;;;;;;812.07;757.87;;;12.00;99.90;;;;;;5011039;28;20454;-81
2022/06/12 02:39:06;;;;;;;843.50;785.60;;;12.00;99.90;;;;;;5014282;28;20864;-81
2022/06/12 02:42:08;;;;;;;835.53;776.57;;;12.10;99.90;;;;;;5055334;22;20480;-83
2022/06/12 02:45:17;;;;;;;827.23;768.90;;;12.10;99.90;;;;;;5026159;28;20479;-83
2022/06/12 03:00:51;;;;;;;842.00;784.43;;;11.90;99.90;;;;;;4952212;28;20488;-84
2022/06/12 03:03:58;;;;;;;846.10;787.80;;;11.70;99.90;;;;;;4955880;29;20455;-83
2022/06/12 03:07:01;;;;;;;848.33;790.97;;;11.70;99.90;;;;;;4973528;28;20451;-81
2022/06/12 03:16:03;;;;;;;836.50;779.20;;;11.60;99.90;;;;;;5019876;28;20467;-82
2022/06/12 03:18:56;;;;;;;850.13;793.70;;;11.50;99.90;;;;;;5039566;28;20476;-82
2022/06/12 03:21:51;;;;;;;860.53;801.73;;;11.40;99.90;;;;;;5037923;28;20479;-81
2022/06/12 03:28:14;;;;;;;850.40;793.90;;;11.30;99.90;;;;;;5010290;28;20452;-82
2022/06/12 03:31:36;;;;;;;843.40;787.80;;;11.30;99.90;;;;;;5039070;28;20475;-81
2022/06/12 03:34:46;;;;;;;841.50;783.63;;;11.20;99.90;;;;;;5041589;28;20456;-81
2022/06/12 03:37:59;;;;;;;841.67;783.97;;;11.20;99.90;;;;;;5017067;28;20477;-81
2022/06/12 03:40:48;;;;;;;832.20;774.90;;;11.30;99.90;;;;;;5029524;28;20848;-81
2022/06/12 03:43:51;;;;;;;841.67;781.87;;;11.10;99.90;;;;;;5041273;28;20452;-82
2022/06/12 03:50:03;;;;;;;843.13;781.80;;;11.20;99.90;;;;;;4984840;28;20462;-81
2022/06/12 03:59:59;;;;;;;834.57;774.53;;;11.60;99.90;;;;;;5021464;28;20774;-81
2022/06/12 04:13:18;;;;;;;814.67;756.87;;;11.90;99.90;;;;;;5030099;28;20496;-81
2022/06/12 04:22:28;;;;;;;798.23;741.37;;;12.10;99.90;;;;;;5071631;23;20478;-81
2022/06/12 04:25:23;;;;;;;788.03;732.93;;;12.30;99.90;;;;;;5078347;28;20450;-81
2022/06/12 04:28:49;;;;;;;786.80;734.20;;;12.30;99.90;;;;;;5059363;28;20443;-81
2022/06/12 04:31:20;;;;;;;814.97;758.10;;;12.30;99.90;;;;;;5066502;28;20502;-82
2022/06/12 04:34:04;;;;;;;819.20;759.63;;;12.30;99.90;;;;;;5079244;28;20446;-83
2022/06/12 04:36:33;;;;;;;829.77;768.87;;;12.40;99.90;;;;;;5091567;28;20455;-81
2022/06/12 04:39:00;;;;;;;838.57;776.67;;;12.50;99.90;;;;;;5090434;28;20474;-82
2022/06/12 04:41:29;;;;;;;831.03;768.43;;;12.60;99.90;;;;;;5090513;28;20481;-81
2022/06/12 04:43:59;;;;;;;826.20;764.53;;;12.70;99.90;;;;;;5092190;28;20439;-82
2022/06/12 04:46:28;;;;;;;821.33;761.07;;;12.70;99.90;;;;;;5092031;28;20514;-82
2022/06/12 04:48:57;;;;;;;823.73;764.97;;;12.70;99.90;;;;;;5089365;28;20446;-82
2022/06/12 04:51:25;;;;;;;819.60;758.80;;;12.80;99.90;;;;;;5091054;28;20479;-82
2022/06/12 04:53:54;;;;;;;825.33;763.77;;;12.90;99.90;;;;;;5091880;28;20459;-81
2022/06/12 04:56:23;;;;;;;845.67;783.80;;;13.00;99.90;;;;;;5088301;28;20470;-83
2022/06/12 04:58:51;;;;;;;831.80;771.70;;;13.00;99.90;;;;;;5092261;28;20474;-82
2022/06/12 05:01:20;;;;;;;828.90;769.60;;;13.10;99.90;;;;;;5092720;28;20481;-82
2022/06/12 05:03:47;;;;;;;803.33;747.00;;;13.20;99.90;;;;;;5091292;28;20546;-81
2022/06/12 05:06:16;;;;;;;810.70;750.67;;;13.20;99.90;;;;;;5092837;28;20478;-82
2022/06/12 05:08:43;;;;;;;794.30;734.60;;;13.40;99.90;;;;;;5093042;28;20450;-82
2022/06/12 05:11:11;;;;;;;797.20;739.57;;;13.60;99.90;;;;;;5093917;28;20462;-83
2022/06/12 05:13:38;;;;;;;788.77;731.40;;;13.60;99.90;;;;;;5094716;28;20450;-83
2022/06/12 05:16:06;;;;;;;721.93;674.83;;;13.80;99.90;;;;;;5093324;28;20447;-83
2022/06/12 05:18:34;;;;;;;633.83;599.23;;;14.20;99.90;;;;;;5093142;28;20466;-81
2022/06/12 05:21:01;;;;;;;402.33;386.30;;;14.70;99.90;;;;;;5093996;28;20524;-83
2022/06/12 05:23:28;;;;;;;53.80;50.50;;;15.20;99.90;;;;;;5094005;28;20464;-83
2022/06/12 05:26:17;;;;;;;12.53;6.50;;;15.80;99.90;;;;;;5092926;28;20548;-82
2022/06/12 05:28:44;;;;;;;11.80;4.00;;;16.50;99.90;;;;;;5086640;28;20463;-81
2022/06/12 05:31:11;;;;;;;11.50;4.43;;;17.10;99.90;;;;;;5088912;28;20552;-81
2022/06/12 05:33:39;;;;;;;12.63;4.50;;;17.70;98.80;;;;;;5086424;28;20452;-81
2022/06/12 05:36:07;;;;;;;10.17;4.40;;;18.30;96.30;;;;;;5090906;28;20458;-80
2022/06/12 05:38:35;;;;;;;14.77;4.57;;;18.90;91.40;;;;;;5075794;28;20462;-82
2022/06/12 05:41:02;;;;;;;16.73;5.47;;;19.20;86.80;;;;;;5089086;28;20545;-82
2022/06/12 05:43:29;;;;;;;17.70;4.80;;;19.50;77.70;;;;;;5078162;28;20524;-83
2022/06/12 05:45:56;;;;;;;12.03;4.20;;;19.90;76.10;;;;;;5079424;28;20452;-85
2022/06/12 05:48:23;;;;;;;12.53;4.90;;;19.90;70.60;;;;;;5086022;28;20441;-83
2022/06/12 05:50:54;;;;;;;13.63;4.50;;;19.70;68.00;;;;;;5087699;28;20470;-84
2022/06/12 05:53:23;;;;;;;9.63;4.43;;;19.90;68.50;;;;;;5086631;28;21013;-83
2022/06/12 05:55:51;;;;;;;10.60;4.03;;;19.90;67.20;;;;;;5088847;28;20440;-84
2022/06/12 05:58:19;;;;;;;15.00;5.10;;;20.10;63.20;;;;;;5085305;28;20528;-82
2022/06/12 06:00:47;;;;;;;18.50;4.93;;;20.30;60.00;;;;;;5089995;28;20466;-82
2022/06/12 06:03:14;;;;;;;13.80;4.80;;;20.60;60.20;;;;;;5088885;28;20452;-83
2022/06/12 06:05:42;;;;;;;11.20;4.10;;;20.60;55.70;;;;;;5088535;28;20452;-83
2022/06/12 06:08:11;;;;;;;10.90;3.23;;;20.10;49.30;;;;;;5085533;28;20867;-83
2022/06/12 06:10:38;;;;;;;8.50;2.80;;;20.20;53.40;;;;;;5086749;28;20493;-84
2022/06/12 06:13:06;;;;;;;8.53;2.60;;;20.30;47.30;;;;;;5086250;28;20452;-83
2022/06/12 06:15:38;;;;;;;7.83;2.83;;;20.50;45.80;;;;;;5082530;28;20449;-84
2022/06/12 06:18:06;;;;;;;10.40;3.47;;;20.20;36.20;;;;;;5065582;28;20470;-83
2022/06/12 06:20:35;;;;;;;9.90;3.13;;;20.40;39.60;;;;;;5082262;28;20480;-84
2022/06/12 06:23:02;;;;;;;12.40;3.20;;;20.20;38.10;;;;;;5089473;28;20882;-83
2022/06/12 06:25:31;;;;;;;7.50;2.03;;;20.50;41.60;;;;;;5089546;28;20516;-83
2022/06/12 06:28:00;;;;;;;5.70;2.10;;;20.60;43.20;;;;;;5093053;28;20540;-84
2022/06/12 06:30:28;;;;;;;8.77;2.20;;;20.20;36.80;;;;;;5094052;28;20472;-83
2022/06/12 06:32:55;;;;;;;8.60;2.53;;;20.50;39.00;;;;;;5092071;28;20427;-84
2022/06/12 06:35:23;;;;;;;9.60;2.07;;;20.50;35.80;;;;;;5089146;28;20448;-82
2022/06/12 06:37:50;;;;;;;5.90;1.90;;;20.60;36.90;;;;;;5087754;28;20455;-80
2022/06/12 06:40:18;;;;;;;9.27;2.20;;;20.60;32.80;;;;;;5078642;28;20459;-85
2022/06/12 06:42:46;;;;;;;14.70;2.37;;;20.70;32.40;;;;;;5075978;28;20459;-84
2022/06/12 06:48:00;;;;;;;7.63;1.73;;;20.70;33.10;;;;;;5076090;28;20823;-84
2022/06/12 06:50:27;;;;;;;7.37;2.00;;;20.80;33.80;;;;;;5074746;28;20481;-85
2022/06/12 06:52:54;;;;;;;6.20;2.20;;;20.80;31.20;;;;;;5075986;28;20847;-84
2022/06/12 06:55:21;;;;;;;9.93;2.20;;;20.80;30.90;;;;;;5075469;28;20459;-85
2022/06/12 06:57:50;;;;;;;8.20;1.90;;;20.80;33.50;;;;;;5076114;28;20833;-85
2022/06/12 07:00:22;;;;;;;4.53;1.73;;;20.80;29.10;;;;;;5075708;28;20446;-85
2022/06/12 07:02:48;;;;;;;9.13;2.37;;;20.80;28.60;;;;;;5072577;28;21029;-85
2022/06/12 07:05:16;;;;;;;6.63;1.67;;;20.80;28.90;;;;;;5074693;28;20464;-84
2022/06/12 07:07:43;;;;;;;7.27;2.10;;;21.00;29.50;;;;;;5080797;28;20464;-84
2022/06/12 07:10:14;;;;;;;11.60;2.50;;;20.90;30.60;;;;;;5075927;28;20444;-82
2022/06/12 07:12:41;;;;;;;7.50;1.60;;;21.20;29.30;;;;;;5082865;28;20460;-84
2022/06/12 07:15:11;;;;;;;7.97;1.60;;;21.20;28.00;;;;;;5080836;28;20455;-82
2022/06/12 07:17:38;;;;;;;7.53;1.53;;;21.20;22.90;;;;;;5064351;28;20947;-83
2022/06/12 07:20:06;;;;;;;8.40;1.90;;;21.40;25.20;;;;;;5077823;28;20477;-80
2022/06/12 07:22:32;;;;;;;7.80;1.87;;;21.40;26.20;;;;;;5082568;28;20478;-83
2022/06/12 07:24:59;;;;;;;8.00;1.80;;;21.50;23.10;;;;;;5079978;28;20454;-86
2022/06/12 07:27:26;;;;;;;7.87;1.53;;;21.60;23.20;;;;;;5074922;28;20458;-84
2022/06/12 07:29:53;;;;;;;6.07;1.37;;;21.60;20.80;;;;;;5079270;28;20457;-84
2022/06/12 07:32:21;;;;;;;8.60;1.70;;;21.60;20.80;;;;;;5080131;28;20474;-82
2022/06/12 07:34:48;;;;;;;6.20;1.60;;;21.80;24.70;;;;;;5080298;28;20446;-82
2022/06/12 07:37:15;;;;;;;8.50;1.80;;;21.80;21.00;;;;;;5077224;28;20828;-81
2022/06/12 07:39:42;;;;;;;4.30;1.20;;;22.00;22.80;;;;;;5073294;28;20477;-86
2022/06/12 07:42:09;;;;;;;8.13;1.43;;;22.10;21.20;;;;;;5074769;28;20466;-85
2022/06/12 07:44:37;;;;;;;6.30;1.73;;;22.40;21.40;;;;;;5076491;28;20447;-84
2022/06/12 07:47:05;;;;;;;6.00;1.87;;;22.20;19.50;;;;;;5077741;28;20453;-81
2022/06/12 07:49:34;;;;;;;5.83;1.37;;;22.20;19.00;;;;;;5076973;28;20837;-83
2022/06/12 07:52:03;;;;;;;6.00;1.20;;;22.40;20.30;;;;;;5077596;28;20497;-83
2022/06/12 07:54:31;;;;;;;6.13;1.33;;;22.60;18.30;;;;;;5077994;28;20446;-82
2022/06/12 07:56:58;;;;;;;7.70;1.80;;;22.80;18.60;;;;;;5077105;28;20446;-84
2022/06/12 07:59:24;;;;;;;8.83;1.57;;;22.80;15.90;;;;;;5075519;28;20489;-83
2022/06/12 08:01:52;;;;;;;7.27;1.60;;;23.00;20.30;;;;;;5077120;28;20789;-84
2022/06/12 08:04:20;;;;;;;5.40;1.60;;;22.90;17.50;;;;;;5077144;28;20450;-84
2022/06/12 08:06:49;;;;;;;5.77;1.33;;;22.80;15.70;;;;;;5081718;28;20447;-82
2022/06/12 08:09:17;;;;;;;5.53;1.17;;;22.90;14.30;;;;;;5080263;28;20450;-83
2022/06/12 08:11:46;;;;;;;8.33;1.20;;;22.90;15.80;;;;;;5074704;28;20820;-86
2022/06/12 08:14:15;;;;;;;8.13;1.73;;;23.40;16.10;;;;;;5074094;28;20446;-86
2022/06/12 08:16:42;;;;;;;4.83;1.47;;;23.60;13.80;;;;;;5073912;28;20451;-86
2022/06/12 08:21:52;;;;;;;5.83;1.43;;;23.60;13.00;;;;;;5072424;28;20870;-86
2022/06/12 08:24:20;;;;;;;6.67;1.30;;;23.70;14.40;;;;;;5073738;28;20961;-85
2022/06/12 08:26:47;;;;;;;5.03;1.40;;;23.90;11.70;;;;;;5077523;28;20450;-83
2022/06/12 08:29:14;;;;;;;7.77;1.33;;;23.50;11.60;;;;;;5081679;28;20472;-83
2022/06/12 08:31:45;;;;;;;6.47;1.63;;;23.70;13.40;;;;;;5081049;28;20469;-82
2022/06/12 08:34:15;;;;;;;7.97;1.90;;;24.00;9.30;;;;;;5081232;28;20424;-84
2022/06/12 08:36:42;;;;;;;5.23;1.40;;;23.90;9.80;;;;;;5074572;28;20454;-83
2022/06/12 08:39:10;;;;;;;8.13;1.20;;;24.00;11.50;;;;;;5077586;28;20853;-82
2022/06/12 08:41:43;;;;;;;9.30;1.90;;;24.20;11.70;;;;;;5095999;22;20873;-81
2022/06/12 08:44:17;;;;;;;7.70;1.90;;;23.90;8.70;;;;;;5069952;28;20454;-83
2022/06/12 08:46:50;;;;;;;5.83;1.47;;;23.60;14.80;;;;;;5060812;28;20444;-82
2022/06/12 08:49:27;;;;;;;8.97;1.43;;;24.00;11.70;;;;;;5060736;28;20926;-81
2022/06/12 08:52:00;;;;;;;6.30;1.27;;;23.70;12.30;;;;;;5062846;28;20467;-81
2022/06/12 08:54:34;;;;;;;6.63;1.20;;;23.70;14.90;;;;;;5061958;28;20450;-82
2022/06/12 08:57:07;;;;;;;10.50;1.73;;;23.70;13.30;;;;;;5061025;28;20451;-82
2022/06/12 08:59:38;;;;;;;6.80;1.20;;;24.40;10.20;;;;;;5063614;28;20482;-82
2022/06/12 09:02:10;;;;;;;5.10;1.20;;;24.00;9.60;;;;;;5063232;28;20478;-83
2022/06/12 09:04:37;;;;;;;8.27;1.77;;;24.20;13.50;;;;;;5056081;28;20462;-82
2022/06/12 09:07:12;;;;;;;7.53;1.50;;;24.80;10.60;;;;;;5064774;28;20457;-82
2022/06/12 09:09:46;;;;;;;6.70;1.30;;;24.90;8.10;;;;;;5064469;28;20489;-82
2022/06/12 09:12:19;;;;;;;8.93;1.50;;;25.00;9.40;;;;;;5064772;28;20490;-82
2022/06/12 09:15:00;;;;;;;7.57;1.53;;;24.60;11.60;;;;;;5066020;28;20447;-83
2022/06/12 09:17:36;;;;;;;6.10;1.70;;;24.50;9.50;;;;;;5064647;28;20474;-82
2022/06/12 09:20:11;;;;;;;7.50;1.20;;;25.00;11.80;;;;;;5053868;28;20451;-81
2022/06/12 09:22:48;;;;;;;5.63;1.90;;;25.20;7.50;;;;;;5065645;28;20474;-81
2022/06/12 09:25:25;;;;;;;8.60;1.63;;;25.40;7.80;;;;;;5066308;28;20451;-85
2022/06/12 09:28:00;;;;;;;6.60;1.73;;;25.70;7.50;;;;;;5065515;28;20450;-83
2022/06/12 09:30:38;;;;;;;6.17;1.47;;;25.10;8.20;;;;;;5064435;28;20447;-83
2022/06/12 09:33:13;;;;;;;7.70;1.47;;;25.60;7.50;;;;;;5062175;28;20446;-83
2022/06/12 09:35:54;;;;;;;4.33;1.10;;;26.00;11.80;;;;;;5061371;28;20662;-82
2022/06/12 09:38:33;;;;;;;8.27;2.03;;;26.30;3.00;;;;;;5059728;28;20451;-81
2022/06/12 09:41:09;;;;;;;6.90;1.50;;;25.90;4.10;;;;;;5060105;28;20530;-81
2022/06/12 09:43:41;;;;;;;8.87;1.57;;;26.80;2.70;;;;;;5060571;28;20451;-81
2022/06/12 09:46:20;;;;;;;6.20;1.40;;;27.00;2.10;;;;;;5061407;28;20458;-81
2022/06/12 09:48:56;;;;;;;10.07;1.87;;;26.80;1.70;;;;;;5058565;28;20998;-84
2022/06/12 09:51:34;;;;;;;8.00;1.80;;;26.10;4.50;;;;;;5058341;28;20482;-82
2022/06/12 09:54:16;;;;;;;7.83;1.13;;;25.80;4.50;;;;;;5053948;28;20454;-82
2022/06/12 09:56:48;;;;;;;6.20;1.50;;;25.70;4.20;;;;;;5040255;28;20456;-82
2022/06/12 09:59:24;;;;;;;7.33;1.77;;;25.70;3.80;;;;;;5056495;28;20467;-81
2022/06/12 10:01:55;;;;;;;7.70;1.88;;;25.90;2.00;;;;;;5059937;28;20455;-82
2022/06/12 10:04:28;;;;;;;7.70;1.37;;;27.00;1.00;;;;;;5066263;28;20668;-83
2022/06/12 10:07:00;;;;;;;8.50;1.70;;;26.90;1.00;;;;;;5065230;28;20458;-81
2022/06/12 10:09:35;;;;;;;5.37;1.40;;;27.00;1.00;;;;;;5065030;28;20539;-82
2022/06/12 10:12:09;;;;;;;5.57;1.70;;;26.80;1.00;;;;;;5065247;28;20474;-82
2022/06/12 10:14:39;;;;;;;9.30;2.53;;;26.90;1.30;;;;;;5065883;28;20455;-81
2022/06/12 10:17:11;;;;;;;9.50;1.47;;;27.30;2.40;;;;;;5064506;28;20463;-81
2022/06/12 10:19:42;;;;;;;14.57;1.90;;;27.00;1.00;;;;;;5063861;28;20471;-82
2022/06/12 10:22:14;;;;;;;9.10;2.00;;;27.20;1.00;;;;;;5065131;28;20467;-82
2022/06/12 10:24:41;;;;;;;5.50;1.47;;;27.50;1.60;;;;;;5062142;28;20459;-81
2022/06/12 10:27:13;;;;;;;4.40;1.20;;;26.70;1.00;;;;;;5064400;28;20975;-82
2022/06/12 10:29:46;;;;;;;15.53;2.30;;;27.30;1.00;;;;;;5064148;28;20451;-82
2022/06/12 10:32:16;;;;;;;6.00;1.10;;;28.00;1.00;;;;;;5066163;28;20470;-85
2022/06/12 10:34:43;;;;;;;6.07;1.80;;;27.90;1.00;;;;;;5066358;28;20447;-84
2022/06/12 10:37:16;;;;;;;8.93;1.90;;;28.30;1.00;;;;;;5065414;28;20443;-82
2022/06/12 10:39:43;;;;;;;6.27;1.77;;;28.70;1.00;;;;;;5064810;28;20482;-82
2022/06/12 10:42:32;;;;;;;6.33;1.50;;;29.00;1.00;;;;;;5063896;28;20477;-81
2022/06/12 10:45:00;;;;;;;11.90;1.80;;;28.20;1.00;;;;;;5067452;28;20447;-83
2022/06/12 10:47:29;;;;;;;9.93;1.77;;;28.10;1.00;;;;;;5068875;28;20451;-81
2022/06/12 10:50:16;;;;;;;12.53;2.20;;;28.40;1.00;;;;;;5068989;28;21164;-82
2022/06/12 10:52:52;;;;;;;6.87;2.30;;;29.00;1.00;;;;;;5071160;28;20466;-82
2022/06/12 10:55:21;;;;;;;6.50;1.73;;;29.70;1.00;;;;;;5069252;28;20450;-81
2022/06/12 10:58:01;;;;;;;5.90;1.57;;;29.70;1.00;;;;;;5071036;28;20454;-82
2022/06/12 11:00:32;;;;;;;6.30;1.70;;;28.70;1.00;;;;;;5070764;28;20469;-82
2022/06/12 11:03:15;;;;;;;6.33;1.97;;;28.90;1.00;;;;;;5069858;28;20451;-82
2022/06/12 11:05:59;;;;;;;8.97;2.03;;;29.90;1.00;;;;;;5070567;28;20469;-82
2022/06/12 11:09:08;;;;;;;6.30;1.50;;;29.50;1.00;;;;;;5068939;28;20483;-82
2022/06/12 11:11:52;;;;;;;11.40;2.07;;;30.20;1.00;;;;;;5068366;28;20471;-82
2022/06/12 11:14:48;;;;;;;8.57;1.53;;;30.60;1.00;;;;;;5068552;28;20425;-82
2022/06/12 11:17:36;;;;;;;7.80;2.03;;;30.00;1.00;;;;;;5066672;28;20455;-82
2022/06/12 11:20:13;;;;;;;7.53;1.90;;;29.80;1.00;;;;;;5067261;28;20482;-82
2022/06/12 11:22:48;;;;;;;9.10;1.70;;;29.80;1.00;;;;;;5067328;28;20464;-82
2022/06/12 11:25:28;;;;;;;6.33;1.43;;;30.60;1.00;;;;;;5068768;28;20451;-82
2022/06/12 11:28:10;;;;;;;6.23;1.50;;;30.80;1.00;;;;;;5067422;28;20443;-82
2022/06/12 11:30:46;;;;;;;9.83;1.87;;;31.40;1.00;;;;;;5068369;28;20433;-82
2022/06/12 11:33:37;;;;;;;7.23;1.43;;;31.60;1.00;;;;;;5068163;28;20483;-82
2022/06/12 11:36:12;;;;;;;6.90;1.30;;;32.10;1.00;;;;;;5046295;28;20456;-82
2022/06/12 11:39:00;;;;;;;9.47;1.33;;;33.20;1.00;;;;;;5062188;28;20501;-82
2022/06/12 11:41:41;;;;;;;9.70;1.50;;;32.90;1.00;;;;;;5066423;28;20454;-82
2022/06/12 11:44:24;;;;;;;8.33;1.63;;;31.90;1.00;;;;;;5067213;28;20788;-82
2022/06/12 11:47:03;;;;;;;6.57;1.67;;;30.70;1.00;;;;;;5047037;28;20437;-82
2022/06/12 11:49:40;;;;;;;6.57;1.43;;;28.90;1.00;;;;;;5067513;28;20451;-82
2022/06/12 11:52:21;;;;;;;9.10;1.50;;;28.70;1.00;;;;;;5068023;28;20478;-82
2022/06/12 11:55:06;;;;;;;6.23;1.43;;;29.20;1.00;;;;;;5048784;28;20430;-82
2022/06/12 11:57:45;;;;;;;8.30;2.10;;;30.10;1.00;;;;;;5066241;28;20507;-81
2022/06/12 12:00:17;;;;;;;7.50;1.83;;;31.40;1.00;;;;;;5066659;28;20479;-81
2022/06/12 12:03:00;;;;;;;8.20;2.03;;;32.60;1.00;;;;;;5064514;28;20442;-83
2022/06/12 12:05:40;;;;;;;7.80;1.67;;;31.30;1.00;;;;;;5067638;28;20447;-82
2022/06/12 12:08:26;;;;;;;9.10;2.23;;;31.80;1.00;;;;;;5065554;28;20486;-82
2022/06/12 12:11:00;;;;;;;6.07;1.43;;;31.60;1.00;;;;;;5064699;28;20822;-82
2022/06/12 12:13:30;;;;;;;7.20;1.60;;;31.70;1.00;;;;;;5065286;28;20458;-83
2022/06/12 12:16:00;;;;;;;6.87;1.80;;;32.40;1.00;;;;;;5064629;28;20458;-82
2022/06/12 12:18:36;;;;;;;10.03;1.97;;;32.20;1.00;;;;;;5063564;28;20429;-82
2022/06/12 12:21:10;;;;;;;8.00;1.67;;;31.60;1.00;;;;;;5044217;28;20442;-83
2022/06/12 12:23:40;;;;;;;9.47;2.40;;;31.90;1.00;;;;;;5061676;28;20459;-82
2022/06/12 12:26:17;;;;;;;7.77;1.97;;;31.90;1.00;;;;;;5062821;28;20454;-82
2022/06/12 12:28:47;;;;;;;8.13;1.80;;;29.90;1.00;;;;;;5064130;28;20445;-81
2022/06/12 12:31:17;;;;;;;10.53;2.43;;;29.30;1.00;;;;;;5066160;28;21008;-82
2022/06/12 12:33:48;;;;;;;8.87;2.47;;;29.60;1.00;;;;;;5064908;28;20475;-82
2022/06/12 12:41:53;;;;;;;15.23;2.10;;;27.80;1.00;;;;;;5065494;28;20489;-81
2022/06/12 12:44:31;;;;;;;5.33;1.50;;;27.10;1.00;;;;;;5065326;28;20436;-81
2022/06/12 12:46:59;;;;;;;6.93;1.73;;;27.50;1.00;;;;;;5065645;28;20521;-81
2022/06/12 12:49:29;;;;;;;5.73;1.73;;;27.30;1.00;;;;;;5064670;28;20459;-81
2022/06/12 12:52:08;;;;;;;10.10;2.20;;;26.80;1.00;;;;;;5064119;28;20479;-82
2022/06/12 12:54:48;;;;;;;7.17;1.87;;;26.50;1.00;;;;;;5065706;28;20447;-81
2022/06/12 12:57:16;;;;;;;6.63;1.77;;;27.90;1.00;;;;;;5065287;28;20422;-81
2022/06/12 12:59:45;;;;;;;6.70;1.70;;;29.90;1.00;;;;;;5064973;28;20429;-81
2022/06/12 13:02:27;;;;;;;8.20;2.03;;;28.90;1.00;;;;;;5064819;28;20475;-81
2022/06/12 13:04:57;;;;;;;9.63;2.63;;;28.80;1.00;;;;;;5058467;28;20454;-82
2022/06/12 13:07:52;;;;;;;7.77;1.83;;;29.40;1.00;;;;;;5062854;28;20514;-82
2022/06/12 13:10:34;;;;;;;10.83;1.67;;;30.80;1.00;;;;;;5061720;28;20462;-82
2022/06/12 13:13:20;;;;;;;8.50;1.90;;;31.20;1.00;;;;;;5064932;28;20429;-81
2022/06/12 13:15:54;;;;;;;5.90;1.60;;;31.50;1.00;;;;;;5062776;28;20418;-81
2022/06/12 13:18:32;;;;;;;7.40;2.33;;;30.70;1.00;;;;;;5063130;28;20455;-82
2022/06/12 13:21:08;;;;;;;5.87;1.90;;;30.00;1.00;;;;;;5062204;28;20471;-81
2022/06/12 13:23:51;;;;;;;7.23;2.30;;;28.70;1.00;;;;;;5063200;28;20425;-82
2022/06/12 13:26:20;;;;;;;7.73;1.80;;;28.20;1.00;;;;;;5062491;28;20765;-81
2022/06/12 13:28:56;;;;;;;8.63;2.43;;;28.40;1.00;;;;;;5063669;28;20428;-81
2022/06/12 13:31:22;;;;;;;8.90;2.47;;;28.90;1.00;;;;;;5063382;28;20490;-82
2022/06/12 13:33:54;;;;;;;8.87;1.97;;;27.60;1.00;;;;;;5063622;28;20452;-81
2022/06/12 13:36:32;;;;;;;7.17;1.70;;;27.90;1.00;;;;;;5064299;28;20508;-81
2022/06/12 13:39:01;;;;;;;6.90;1.83;;;29.50;1.00;;;;;;5064868;28;20422;-81
2022/06/12 13:41:35;;;;;;;7.57;2.30;;;31.00;1.00;;;;;;5062163;28;20445;-82
2022/06/12 13:44:21;;;;;;;7.53;1.70;;;31.20;1.00;;;;;;5063623;28;20426;-81
2022/06/12 13:46:48;;;;;;;6.33;1.70;;;30.00;1.00;;;;;;5058785;28;20483;-81
2022/06/12 13:49:27;;;;;;;12.53;2.00;;;30.10;1.00;;;;;;5041238;28;20460;-80
2022/06/12 13:52:01;;;;;;;6.10;1.50;;;29.80;1.00;;;;;;5053897;28;20574;-81
2022/06/12 13:54:29;;;;;;;6.50;1.77;;;29.50;1.00;;;;;;5062140;28;20455;-81
2022/06/12 13:57:05;;;;;;;10.90;2.00;;;30.40;1.00;;;;;;5060828;28;20436;-81
2022/06/12 13:59:39;;;;;;;8.43;1.63;;;30.90;1.00;;;;;;5062479;28;20462;-81
2022/06/12 14:02:15;;;;;;;12.00;2.10;;;30.60;1.00;;;;;;5061797;28;20558;-81
2022/06/12 14:04:51;;;;;;;6.20;2.00;;;29.40;1.00;;;;;;5046237;28;20919;-79
2022/06/12 14:07:20;;;;;;;5.97;1.47;;;28.50;1.00;;;;;;5057366;28;20430;-81
2022/06/12 14:09:49;;;;;;;7.90;2.13;;;27.40;1.00;;;;;;5058222;28;20451;-83
2022/06/12 14:12:16;;;;;;;7.77;1.90;;;26.90;1.00;;;;;;5058846;28;20478;-82
2022/06/12 14:14:44;;;;;;;8.57;1.63;;;26.80;1.00;;;;;;5057285;28;20474;-83
2022/06/12 14:17:21;;;;;;;6.67;1.63;;;27.20;1.00;;;;;;5057872;28;20451;-84